Time,TemperatureF,DewpointF,PressureIn,WindDirection,WindDirectionDegrees,WindSpeedMPH,WindSpeedGustMPH,Humidity,HourlyPrecipIn,Conditions,Clouds,dailyrainin,SoftwareType,DateUTC
2013-04-11 00:01:00,36.0,33.8,29.72,East,90,9.6,9.6,92,0.10,,,0.00,WUHU21623XXSP,2013-04-11 05:01:00,
2013-04-11 00:06:00,36.0,33.8,29.72,ENE,67,2.9,9.6,92,0.08,,,0.00,WUHU21623XXSP,2013-04-11 05:06:00,
2013-04-11 00:11:00,36.0,33.8,29.73,NNE,22,6.5,6.5,92,0.08,,,0.00,WUHU21623XXSP,2013-04-11 05:11:00,
2013-04-11 00:16:00,36.0,33.8,29.73,NE,45,6.3,6.5,92,0.08,,,0.00,WUHU21623XXSP,2013-04-11 05:16:00,
2013-04-11 00:21:00,35.8,33.6,29.73,East,90,9.8,9.8,92,0.10,,,0.02,WUHU21623XXSP,2013-04-11 05:21:00,
2013-04-11 00:26:00,35.8,33.6,29.73,NE,45,6.9,9.8,92,0.10,,,0.02,WUHU21623XXSP,2013-04-11 05:26:00,
2013-04-11 00:31:00,35.8,33.6,29.74,NE,45,10.5,10.5,92,0.10,,,0.05,WUHU21623XXSP,2013-04-11 05:31:00,
2013-04-11 00:36:00,35.8,33.6,29.74,NNE,22,2.5,10.5,92,0.10,,,0.07,WUHU21623XXSP,2013-04-11 05:36:00,
2013-04-11 00:42:00,35.8,33.6,29.74,East,90,21.0,21.0,92,0.10,,,0.07,WUHU21623XXSP,2013-04-11 05:42:00,
2013-04-11 00:47:00,35.8,33.6,29.74,NE,45,4.5,21.0,92,0.10,,,0.09,WUHU21623XXSP,2013-04-11 05:47:00,
2013-04-11 00:52:00,35.8,33.6,29.74,NNW,337,0.7,8.9,92,0.12,,,0.11,WUHU21623XXSP,2013-04-11 05:52:00,
2013-04-11 00:57:00,35.8,33.6,29.74,ESE,112,3.4,3.4,92,0.10,,,0.11,WUHU21623XXSP,2013-04-11 05:57:00,
2013-04-11 01:31:00,35.4,33.3,29.72,NE,45,6.7,6.7,92,0.06,,,0.11,WUHU21623XXSP,2013-04-11 06:31:00,
2013-04-11 02:31:00,34.7,32.6,29.60,ENE,68,10.1,10.1,92,0.00,,,0.17,WUHU21623XXSP,2013-04-11 07:31:00,
2013-04-11 03:00:00,34.5,32.4,29.64,NE,45,3.1,3.1,92,0.02,,,0.25,WUHU21623XXSP,2013-04-11 08:00:00,
2013-04-11 03:05:00,34.5,32.4,29.63,East,90,6.3,9.2,92,0.02,,,0.25,WUHU21623XXSP,2013-04-11 08:05:00,
2013-04-11 03:10:00,34.5,32.4,29.63,NNE,22,9.2,9.2,92,0.02,,,0.25,WUHU21623XXSP,2013-04-11 08:10:00,
2013-04-11 03:15:00,34.5,32.4,29.64,East,90,7.4,9.2,92,0.00,,,0.25,WUHU21623XXSP,2013-04-11 08:15:00,
2013-04-11 03:25:00,34.5,32.4,29.63,ESE,112,20.1,20.1,92,0.00,,,0.25,WUHU21623XXSP,2013-04-11 08:25:00,
2013-04-11 03:30:00,34.5,32.4,29.64,SE,135,5.1,20.1,92,0.00,,,0.25,WUHU21623XXSP,2013-04-11 08:30:00,
2013-04-11 03:35:00,34.5,32.4,29.64,East,90,3.8,8.9,92,0.00,,,0.25,WUHU21623XXSP,2013-04-11 08:35:00,
2013-04-11 03:40:00,34.5,32.4,29.64,ENE,67,3.6,12.1,92,0.00,,,0.25,WUHU21623XXSP,2013-04-11 08:40:00,
2013-04-11 03:45:00,34.5,32.4,29.64,East,90,9.4,12.1,92,0.00,,,0.25,WUHU21623XXSP,2013-04-11 08:45:00,
2013-04-11 03:50:00,34.5,32.4,29.64,East,90,13.6,13.6,92,0.00,,,0.25,WUHU21623XXSP,2013-04-11 08:50:00,
2013-04-11 03:55:00,34.5,32.4,29.63,ENE,67,4.7,13.6,92,0.00,,,0.25,WUHU21623XXSP,2013-04-11 08:55:00,
2013-04-11 04:00:00,34.5,32.4,29.63,ESE,112,10.5,10.5,92,0.00,,,0.25,WUHU21623XXSP,2013-04-11 09:00:00,
2013-04-11 04:05:00,34.5,32.4,29.63,ENE,67,6.9,15.0,92,0.00,,,0.25,WUHU21623XXSP,2013-04-11 09:05:00,
2013-04-11 04:10:00,34.5,32.4,29.63,ESE,112,18.1,18.1,92,0.00,,,0.25,WUHU21623XXSP,2013-04-11 09:10:00,
2013-04-11 04:15:00,34.5,32.4,29.63,NE,45,6.5,18.1,92,0.00,,,0.25,WUHU21623XXSP,2013-04-11 09:15:00,
2013-04-11 04:20:00,34.5,32.4,29.63,ESE,112,8.1,8.1,92,0.00,,,0.25,WUHU21623XXSP,2013-04-11 09:20:00,
2013-04-11 04:31:00,34.5,32.4,29.62,SE,135,10.1,10.1,92,0.00,,,0.25,WUHU21623XXSP,2013-04-11 09:31:00,
2013-04-11 05:31:00,34.5,32.1,29.58,ENE,68,8.3,8.3,91,0.00,,,0.25,WUHU21623XXSP,2013-04-11 10:31:00,
2013-04-11 06:31:00,34.5,32.4,29.59,East,90,8.1,8.1,92,0.00,,,0.25,WUHU21623XXSP,2013-04-11 11:31:00,
2013-04-11 06:42:00,34.5,32.4,29.58,ENE,67,12.8,12.8,92,0.00,,,0.25,WUHU21623XXSP,2013-04-11 11:42:00,
2013-04-11 06:47:00,34.5,32.4,29.59,ESE,112,11.6,16.6,92,0.00,,,0.25,WUHU21623XXSP,2013-04-11 11:47:00,
2013-04-11 06:52:00,34.5,32.4,29.58,NE,45,15.7,16.6,92,0.00,,,0.25,WUHU21623XXSP,2013-04-11 11:52:00,
2013-04-11 06:57:00,34.7,32.5,29.59,East,90,8.5,15.7,92,0.00,,,0.25,WUHU21623XXSP,2013-04-11 11:57:00,
2013-04-11 07:02:00,34.7,32.5,29.60,ENE,67,4.7,9.4,92,0.00,,,0.25,WUHU21623XXSP,2013-04-11 12:02:00,
2013-04-11 07:07:00,34.7,32.5,29.59,East,90,17.4,17.4,92,0.00,,,0.25,WUHU21623XXSP,2013-04-11 12:07:00,
2013-04-11 07:12:00,34.7,32.5,29.59,NE,45,11.9,17.4,92,0.00,,,0.25,WUHU21623XXSP,2013-04-11 12:12:00,
2013-04-11 07:17:00,34.9,33.0,29.59,East,90,4.9,12.3,93,0.02,,,0.27,WUHU21623XXSP,2013-04-11 12:17:00,
2013-04-11 07:22:00,34.9,33.0,29.58,SE,135,9.2,9.2,93,0.02,,,0.27,WUHU21623XXSP,2013-04-11 12:22:00,
2013-04-11 07:27:00,34.9,33.0,29.58,NNW,337,8.1,9.8,93,0.02,,,0.27,WUHU21623XXSP,2013-04-11 12:27:00,
2013-04-11 07:32:00,35.1,33.0,29.58,NW,315,8.1,9.8,93,0.02,,,0.27,WUHU21623XXSP,2013-04-11 12:32:00,
2013-04-11 07:37:00,35.2,33.4,29.58,ENE,67,17.9,17.9,93,0.02,,,0.27,WUHU21623XXSP,2013-04-11 12:37:00,
2013-04-11 07:42:00,35.2,33.4,29.57,ENE,67,5.6,17.9,93,0.02,,,0.27,WUHU21623XXSP,2013-04-11 12:42:00,
2013-04-11 07:47:00,35.2,33.4,29.57,East,90,10.5,11.2,93,0.02,,,0.27,WUHU21623XXSP,2013-04-11 12:47:00,
2013-04-11 07:50:00,35.2,33.4,29.57,ENE,67,4.0,22.1,93,0.02,,,0.27,WUHU21623XXSP,2013-04-11 12:50:00,
2013-04-11 08:31:00,35.2,33.3,29.57,East,90,13.4,13.4,93,0.00,,,0.27,WUHU21623XXSP,2013-04-11 13:31:00,
2013-04-11 09:31:00,35.8,33.9,29.55,ENE,68,9.4,9.4,93,0.00,,,0.29,WUHU21623XXSP,2013-04-11 14:31:00,
2013-04-11 10:31:00,36.3,34.4,29.54,ESE,113,13.4,13.4,93,0.00,,,0.29,WUHU21623XXSP,2013-04-11 15:31:00,
2013-04-11 11:31:00,37.2,35.3,29.53,ESE,113,16.1,16.1,93,0.00,,,0.33,WUHU21623XXSP,2013-04-11 16:31:00,
2013-04-11 12:31:00,37.2,35.3,29.52,East,90,2.7,2.7,93,0.00,,,0.35,WUHU21623XXSP,2013-04-11 17:31:00,
2013-04-11 13:31:00,37.6,35.4,29.49,East,90,7.8,7.8,92,0.00,,,0.35,WUHU21623XXSP,2013-04-11 18:31:00,
2013-04-11 14:31:00,37.2,35.0,29.47,SE,135,9.2,9.2,92,0.00,,,0.35,WUHU21623XXSP,2013-04-11 19:31:00,
2013-04-11 15:31:00,37.2,35.0,29.46,NE,45,12.8,12.8,92,0.00,,,0.35,WUHU21623XXSP,2013-04-11 20:31:00,
2013-04-11 16:31:00,36.9,35.0,29.46,ESE,113,0.0,0.0,93,0.00,,,0.35,WUHU21623XXSP,2013-04-11 21:31:00,
2013-04-11 17:31:00,36.3,34.2,29.44,East,90,10.3,10.3,92,0.00,,,0.35,WUHU21623XXSP,2013-04-11 22:31:00,
2013-04-11 18:31:00,35.8,33.7,29.47,NE,45,3.1,3.1,92,0.00,,,0.37,WUHU21623XXSP,2013-04-11 23:31:00,
2013-04-11 19:31:00,35.2,33.3,29.41,East,90,6.0,6.0,93,0.00,,,0.37,WUHU21623XXSP,2013-04-12 00:31:00,
2013-04-11 20:31:00,35.2,33.3,29.41,ENE,68,7.2,7.2,93,0.00,,,0.37,WUHU21623XXSP,2013-04-12 01:31:00,
2013-04-11 21:31:00,35.2,33.3,29.42,ESE,113,5.8,5.8,93,0.00,,,0.37,WUHU21623XXSP,2013-04-12 02:31:00,
2013-04-11 22:31:00,35.4,33.5,29.40,NE,45,1.6,1.6,93,0.00,,,0.37,WUHU21623XXSP,2013-04-12 03:31:00,
2013-04-11 23:31:00,35.4,33.5,29.40,ENE,68,3.4,3.4,93,0.00,,,0.39,WUHU21623XXSP,2013-04-12 04:31:00,